メインページ
METAR-TAF:

METAR-TAF

空港 :

リンデン, ニュージャージー州, アメリカ合衆国

緯度: 40-37-03N, 経度: 074-14-40W, 海抜: 7m

現時点の気象観測

当レポートは28分前の15:35(UTC)に作成
無風
気温 -4°C
湿度 46%
気圧 1034 hPa
視程: 16.1km
高度8000ftの千切れ雲あり
高度10000ftの曇り

METAR: KLDJ 181535Z AUTO 00000KT 10SM BKN080 OVC100 M04/M14 A3052 RMK AO2 T10371145

時間: 11:03 (16:03 UTC)


TAF: 見つかりません

4,000以上の空港の気象観測と天気予報(METAR報とTAF報)

利用可能な観測所は地図上に黄色い丸と赤い丸で示す。

丸の上にカーソルを重ねると観測所名を参照できる。

次にクリックすると気象観測と天気予報を参照できる。

マップの切り替え:黒色「×」印の緑ボタンをクリックして拡大、「-」印の緑ボタンをクリックして縮小、緑色の三角印をクリックして隣りの地図に切り替え


METAR-TAF: